createdAt,value
2019-03-02T00:02:08.926Z,18.77
2019-03-02T00:04:41.939Z,18.63
2019-03-02T00:07:11.327Z,23.70
2019-03-02T00:09:40.982Z,20.10
2019-03-02T00:12:10.324Z,28.83
2019-03-02T00:14:40.086Z,27.17
2019-03-02T00:17:09.431Z,23.70
2019-03-02T00:19:41.901Z,28.67
2019-03-02T00:22:11.058Z,25.33
2019-03-02T00:24:42.284Z,26.87
2019-03-02T00:27:12.611Z,20.83
2019-03-02T00:29:45.923Z,28.23
2019-03-02T00:32:13.849Z,18.83
2019-03-02T00:34:43.308Z,24.53
2019-03-02T00:37:12.871Z,25.67
2019-03-02T00:39:42.257Z,26.03
2019-03-02T00:42:13.542Z,17.43
2019-03-02T00:44:42.676Z,28.00
2019-03-02T00:47:12.702Z,20.23
2019-03-02T00:49:42.050Z,15.87
2019-03-02T00:52:11.505Z,21.27
2019-03-02T00:54:43.426Z,27.83
2019-03-02T00:57:14.784Z,21.67
2019-03-02T00:59:43.805Z,23.47
2019-03-02T01:02:13.091Z,22.43
2019-03-02T01:04:42.424Z,20.53
2019-03-02T01:07:12.086Z,18.87
2019-03-02T01:09:43.697Z,18.83
2019-03-02T01:12:12.599Z,18.90
2019-03-02T01:14:42.070Z,19.53
2019-03-02T01:17:11.554Z,18.23
2019-03-02T01:19:41.327Z,18.87
2019-03-02T01:22:13.561Z,17.80
2019-03-02T01:24:41.651Z,16.07
2019-03-02T01:27:11.032Z,14.13
2019-03-02T01:29:40.547Z,12.87
2019-03-02T01:32:12.750Z,16.73
2019-03-02T01:34:43.191Z,18.83
2019-03-02T01:37:12.655Z,19.03
2019-03-02T01:39:41.966Z,17.53
2019-03-02T01:42:11.265Z,12.23
2019-03-02T01:44:40.627Z,19.60
2019-03-02T01:47:12.586Z,20.20
2019-03-02T01:49:41.116Z,20.97
2019-03-02T01:52:10.672Z,21.20
2019-03-02T01:54:40.245Z,21.07
2019-03-02T01:57:09.592Z,18.43
2019-03-02T01:59:39.951Z,22.60
2019-03-02T02:02:09.510Z,21.70
2019-03-02T02:04:39.346Z,22.00
2019-03-02T02:07:08.703Z,24.13
2019-03-02T02:09:40.577Z,22.10
2019-03-02T02:12:09.092Z,17.70
2019-03-02T02:14:38.580Z,21.13
2019-03-02T02:17:08.035Z,22.03
2019-03-02T02:19:38.580Z,22.57
2019-03-02T02:22:08.366Z,20.10
2019-03-02T02:24:37.758Z,23.20
2019-03-02T02:27:07.044Z,20.20
2019-03-02T02:29:36.382Z,20.07
2019-03-02T02:32:05.596Z,21.63
2019-03-02T02:34:34.882Z,21.73
2019-03-02T02:37:04.136Z,19.83
2019-03-02T02:39:34.858Z,19.40
2019-03-02T02:42:05.112Z,17.43
2019-03-02T02:44:37.705Z,19.63
2019-03-02T02:47:07.142Z,15.33
2019-03-02T02:49:37.690Z,20.87
2019-03-02T02:52:06.876Z,21.57
2019-03-02T02:54:36.077Z,20.43
2019-03-02T02:57:05.325Z,19.33
2019-03-02T02:59:38.544Z,17.27
2019-03-02T03:02:10.734Z,16.13
2019-03-02T03:04:38.388Z,16.30
2019-03-02T03:07:12.342Z,18.20
2019-03-02T03:09:49.541Z,16.67
2019-03-02T03:12:22.600Z,17.87
2019-03-02T03:14:54.020Z,21.70
2019-03-02T03:17:20.519Z,18.70
2019-03-02T03:19:49.925Z,17.37
2019-03-02T03:22:19.287Z,15.50
2019-03-02T03:24:48.626Z,22.50
2019-03-02T03:27:17.925Z,16.23
2019-03-02T03:29:50.028Z,19.37
2019-03-02T03:32:20.321Z,21.07
2019-03-02T03:34:49.887Z,19.63
2019-03-02T03:37:19.222Z,21.40
2019-03-02T03:39:48.422Z,18.10
2019-03-02T03:42:23.064Z,16.97
2019-03-02T03:44:48.782Z,14.13
2019-03-02T03:47:18.153Z,19.00
2019-03-02T03:49:47.413Z,17.80
2019-03-02T03:52:16.696Z,21.10
2019-03-02T03:54:46.491Z,19.30
2019-03-02T03:57:17.204Z,18.83
2019-03-02T03:59:47.000Z,21.50
2019-03-02T04:02:16.392Z,16.33
2019-03-02T04:04:45.678Z,13.17
2019-03-02T04:07:14.889Z,21.97
2019-03-02T04:09:46.902Z,14.77
2019-03-02T04:12:19.845Z,17.60
2019-03-02T04:14:46.279Z,15.67
2019-03-02T04:17:15.508Z,18.27
2019-03-02T04:19:44.764Z,20.30
2019-03-02T04:22:15.791Z,18.93
2019-03-02T04:24:45.234Z,20.27
2019-03-02T04:27:15.464Z,17.20
2019-03-02T04:29:49.849Z,13.23
2019-03-02T04:32:16.756Z,15.87
2019-03-02T04:34:46.274Z,16.20
2019-03-02T04:37:15.530Z,19.07
2019-03-02T04:39:46.398Z,17.63
2019-03-02T04:42:15.808Z,13.30
2019-03-02T04:44:45.126Z,18.07
2019-03-02T04:47:14.372Z,12.87
2019-03-02T04:49:43.672Z,15.53
2019-03-02T04:52:14.546Z,17.07
2019-03-02T04:54:44.045Z,13.00
2019-03-02T04:57:13.304Z,13.90
2019-03-02T04:59:42.563Z,11.43
2019-03-02T05:02:12.129Z,13.00
2019-03-02T05:04:41.474Z,16.53
2019-03-02T05:07:10.856Z,16.70
2019-03-02T05:09:40.140Z,13.30
2019-03-02T05:12:11.617Z,16.57
2019-03-02T05:14:40.954Z,12.07
2019-03-02T05:17:10.485Z,15.77
2019-03-02T05:19:39.691Z,14.50
2019-03-02T05:22:08.982Z,12.33
2019-03-02T05:24:40.481Z,10.83
2019-03-02T05:27:09.562Z,8.30
2019-03-02T05:29:38.803Z,8.70
2019-03-02T05:32:07.992Z,10.53
2019-03-02T05:34:39.734Z,9.77
2019-03-02T05:37:08.314Z,13.03
2019-03-02T05:39:37.593Z,16.87
2019-03-02T05:42:06.944Z,11.53
2019-03-02T05:44:36.205Z,12.70
2019-03-02T05:47:05.480Z,11.93
2019-03-02T05:49:34.790Z,10.07
2019-03-02T05:52:04.438Z,10.77
2019-03-02T05:54:33.719Z,16.63
2019-03-02T05:57:04.175Z,16.37
2019-03-02T05:59:33.699Z,12.53
2019-03-02T06:02:03.319Z,14.23
2019-03-02T06:04:32.668Z,17.87
2019-03-02T06:07:01.970Z,14.60
2019-03-02T06:09:31.243Z,18.87
2019-03-02T06:12:00.547Z,15.33
2019-03-02T06:14:30.385Z,11.07
2019-03-02T06:17:00.988Z,12.30
2019-03-02T06:19:30.313Z,16.70
2019-03-02T06:21:59.629Z,11.23
2019-03-02T06:24:28.844Z,16.50
2019-03-02T06:26:58.131Z,12.13
2019-03-02T06:29:29.458Z,15.53
2019-03-02T06:31:58.739Z,18.03
2019-03-02T06:34:28.048Z,17.13
2019-03-02T06:36:57.334Z,20.20
2019-03-02T06:39:26.627Z,19.77
2019-03-02T06:41:56.060Z,14.20
2019-03-02T06:44:25.494Z,15.37
2019-03-02T06:46:58.090Z,13.63
2019-03-02T06:49:25.746Z,12.00
2019-03-02T06:51:55.075Z,13.33
2019-03-02T06:54:24.363Z,12.67
2019-03-02T06:56:57.692Z,18.77
2019-03-02T06:59:25.220Z,20.30
2019-03-02T07:01:56.565Z,18.80
2019-03-02T07:04:25.641Z,22.40
2019-03-02T07:06:55.020Z,13.13
2019-03-02T07:09:24.359Z,20.30
2019-03-02T07:11:53.698Z,17.20
2019-03-02T07:14:22.961Z,19.60
2019-03-02T07:16:55.974Z,20.73
2019-03-02T07:19:44.976Z,19.23
2019-03-02T07:22:16.874Z,19.37
2019-03-02T07:24:45.697Z,17.63
2019-03-02T07:27:14.992Z,16.27
2019-03-02T07:29:45.660Z,18.80
2019-03-02T07:32:15.586Z,17.47
2019-03-02T07:34:45.486Z,19.37
2019-03-02T07:37:14.992Z,15.70
2019-03-02T07:39:44.278Z,19.60
2019-03-02T07:42:13.679Z,18.00
2019-03-02T07:44:43.017Z,18.03
2019-03-02T07:47:12.718Z,17.73
2019-03-02T07:49:42.091Z,20.63
2019-03-02T07:52:13.763Z,17.87
2019-03-02T07:54:43.314Z,20.00
2019-03-02T07:57:13.072Z,15.63
2019-03-02T07:59:42.516Z,19.27
2019-03-02T08:02:11.954Z,16.17
2019-03-02T08:04:41.280Z,15.20
2019-03-02T08:07:10.695Z,17.47
2019-03-02T08:09:40.041Z,18.03
2019-03-02T08:12:09.769Z,15.70
2019-03-02T08:14:39.059Z,13.10
2019-03-02T08:17:09.869Z,19.27
2019-03-02T08:19:39.374Z,17.90
2019-03-02T08:22:11.097Z,16.07
2019-03-02T08:24:40.259Z,18.40
2019-03-02T08:27:11.077Z,15.23
2019-03-02T08:29:40.268Z,16.00
2019-03-02T08:32:10.369Z,17.30
2019-03-02T08:34:42.903Z,14.60
2019-03-02T08:37:10.788Z,14.67
2019-03-02T08:39:42.896Z,15.07
2019-03-02T08:42:12.124Z,14.50
2019-03-02T08:44:42.285Z,13.57
2019-03-02T08:47:11.643Z,16.43
2019-03-02T08:49:41.797Z,15.00
2019-03-02T08:52:12.127Z,15.00
2019-03-02T08:54:41.513Z,15.63
2019-03-02T08:57:10.851Z,13.67
2019-03-02T08:59:40.311Z,11.73
2019-03-02T09:02:09.763Z,12.20
2019-03-02T09:04:39.047Z,12.40
2019-03-02T09:07:11.424Z,12.73
2019-03-02T09:09:39.437Z,12.17
2019-03-02T09:12:08.648Z,12.43
2019-03-02T09:14:37.969Z,13.37
2019-03-02T09:17:07.337Z,12.10
2019-03-02T09:19:36.568Z,12.23
2019-03-02T09:22:05.777Z,13.13
2019-03-02T09:24:35.123Z,10.40
2019-03-02T09:27:04.803Z,12.77
2019-03-02T09:29:34.208Z,11.23
2019-03-02T09:32:04.112Z,11.20
2019-03-02T09:34:33.600Z,10.80
2019-03-02T09:37:03.859Z,11.73
2019-03-02T09:39:37.298Z,12.27
2019-03-02T09:42:05.224Z,12.70
2019-03-02T09:44:36.260Z,12.23
2019-03-02T09:47:09.085Z,11.33
2019-03-02T09:49:37.401Z,11.50
2019-03-02T09:52:07.821Z,12.43
2019-03-02T09:54:37.154Z,11.83
2019-03-02T09:57:06.365Z,12.10
2019-03-02T09:59:35.887Z,10.57
2019-03-02T10:02:05.344Z,10.37
2019-03-02T10:04:35.888Z,9.20
2019-03-02T10:07:06.013Z,11.37
2019-03-02T10:09:35.333Z,9.53
2019-03-02T10:12:04.602Z,10.63
2019-03-02T10:14:35.096Z,8.77
2019-03-02T10:17:04.978Z,8.90
2019-03-02T10:19:34.317Z,8.57
2019-03-02T10:22:03.520Z,7.70
2019-03-02T10:24:32.816Z,6.93
2019-03-02T10:27:02.163Z,6.53
2019-03-02T10:29:32.470Z,6.70
2019-03-02T10:32:02.006Z,6.07
2019-03-02T10:34:31.422Z,7.80
2019-03-02T10:37:03.600Z,6.90
2019-03-02T10:39:32.735Z,6.70
2019-03-02T10:42:02.904Z,7.27
2019-03-02T10:44:32.127Z,7.23
2019-03-02T10:47:01.651Z,6.90
2019-03-02T10:49:30.994Z,7.83
2019-03-02T10:52:00.334Z,7.10
2019-03-02T10:54:31.571Z,7.10
2019-03-02T10:57:01.007Z,7.57
2019-03-02T10:59:30.536Z,7.80
2019-03-02T11:01:59.872Z,6.73
2019-03-02T11:04:44.023Z,5.20
2019-03-02T11:07:33.697Z,7.00
2019-03-02T11:10:22.053Z,7.87
2019-03-02T11:13:16.006Z,7.30
2019-03-02T11:16:12.696Z,6.37
2019-03-02T11:19:13.594Z,7.03
2019-03-02T11:22:04.781Z,6.20
2019-03-02T11:25:02.009Z,7.30
2019-03-02T11:27:41.832Z,6.70
2019-03-02T11:30:30.330Z,6.50
2019-03-02T11:33:17.580Z,8.07
2019-03-02T11:36:06.277Z,8.27
2019-03-02T11:38:57.867Z,9.07
2019-03-02T11:41:40.636Z,10.13
2019-03-02T11:44:27.840Z,10.10
2019-03-02T11:47:16.206Z,10.43
2019-03-02T11:50:04.479Z,10.10
2019-03-02T11:53:02.042Z,7.20
2019-03-02T11:55:56.360Z,8.63
2019-03-02T11:58:51.132Z,8.57
2019-03-02T12:01:42.564Z,8.23
2019-03-02T12:04:37.074Z,9.67
2019-03-02T12:07:18.520Z,8.83
2019-03-02T12:10:05.164Z,8.80
2019-03-02T12:12:55.485Z,8.07
2019-03-02T12:15:35.886Z,10.07
2019-03-02T12:18:22.883Z,8.60
2019-03-02T12:21:06.534Z,8.87
2019-03-02T12:24:00.408Z,7.93
2019-03-02T12:26:51.640Z,8.90
2019-03-02T12:29:49.827Z,8.73
2019-03-02T12:32:47.563Z,8.00
2019-03-02T12:35:51.077Z,7.33
2019-03-02T12:38:36.928Z,7.93
2019-03-02T12:41:16.725Z,8.27
2019-03-02T12:43:57.666Z,7.37
2019-03-02T12:46:47.952Z,8.47
2019-03-02T12:49:34.127Z,8.10
2019-03-02T12:52:12.148Z,8.53
2019-03-02T12:55:10.140Z,6.20
2019-03-02T12:57:58.562Z,6.10
2019-03-02T13:01:01.750Z,5.60
2019-03-02T13:03:48.431Z,5.23
2019-03-02T13:06:37.465Z,4.50
2019-03-02T13:09:27.413Z,5.97
2019-03-02T13:12:27.958Z,5.50
2019-03-02T13:15:22.194Z,6.20
2019-03-02T13:18:01.338Z,4.40
2019-03-02T13:20:39.550Z,5.20
2019-03-02T13:23:26.496Z,4.50
2019-03-02T13:26:18.008Z,4.87
2019-03-02T13:29:09.087Z,5.50
2019-03-02T13:31:51.932Z,5.40
2019-03-02T13:34:43.875Z,4.77
2019-03-02T13:37:33.826Z,4.80
2019-03-02T13:40:22.432Z,4.83
2019-03-02T13:43:04.532Z,5.10
2019-03-02T13:45:42.021Z,3.67
2019-03-02T13:48:36.534Z,5.07
2019-03-02T13:51:16.890Z,5.27
2019-03-02T13:54:14.515Z,5.27
2019-03-02T13:57:04.778Z,5.00
2019-03-02T13:59:45.870Z,5.30
2019-03-02T14:02:35.062Z,5.03
2019-03-02T14:05:32.371Z,4.87
2019-03-02T14:08:20.633Z,5.00
2019-03-02T14:11:04.056Z,4.90
2019-03-02T14:13:42.643Z,5.20
2019-03-02T14:16:55.092Z,5.63
2019-03-02T14:19:48.309Z,5.17
2019-03-02T14:22:35.707Z,4.30
2019-03-02T14:25:24.810Z,5.50
2019-03-02T14:28:13.074Z,5.13
2019-03-02T14:30:52.646Z,5.60
2019-03-02T14:33:40.052Z,6.20
2019-03-02T14:36:30.589Z,5.30
2019-03-02T14:39:21.474Z,4.80
2019-03-02T14:42:07.808Z,4.90
2019-03-02T14:44:44.525Z,5.67
2019-03-02T14:47:47.969Z,5.10
2019-03-02T14:50:40.274Z,6.23
2019-03-02T14:53:37.969Z,5.93
2019-03-02T14:56:20.674Z,5.50
2019-03-02T14:59:10.181Z,4.83
2019-03-02T15:01:57.194Z,5.87
2019-03-02T15:05:03.933Z,6.67
2019-03-02T15:08:01.260Z,6.63
2019-03-02T15:10:49.560Z,6.40
2019-03-02T15:13:40.868Z,6.03
2019-03-02T15:16:47.514Z,6.20
2019-03-02T15:19:34.365Z,6.07
2019-03-02T15:22:24.305Z,6.53
2019-03-02T15:25:14.779Z,6.40
2019-03-02T15:28:06.286Z,5.33
2019-03-02T15:30:45.539Z,7.00
2019-03-02T15:33:23.451Z,6.27
2019-03-02T15:36:23.722Z,7.77
2019-03-02T15:39:16.497Z,6.97
2019-03-02T15:41:55.499Z,6.40
2019-03-02T15:44:33.148Z,6.70
2019-03-02T15:47:18.889Z,6.33
2019-03-02T15:49:59.469Z,6.13
2019-03-02T15:52:35.090Z,6.70
2019-03-02T15:55:41.183Z,6.00
2019-03-02T15:58:33.963Z,5.50
2019-03-02T16:01:23.247Z,5.57
2019-03-02T16:04:20.852Z,5.60
2019-03-02T16:07:03.238Z,4.47
2019-03-02T16:09:51.571Z,5.47
2019-03-02T16:12:32.318Z,6.27
2019-03-02T16:15:29.682Z,6.30
2019-03-02T16:18:30.420Z,6.67
2019-03-02T16:21:19.572Z,4.63
2019-03-02T16:24:01.244Z,5.43
2019-03-02T16:26:42.785Z,5.77
2019-03-02T16:29:20.853Z,6.27
2019-03-02T16:32:09.177Z,5.97
2019-03-02T16:35:00.867Z,6.00
2019-03-02T16:37:53.790Z,5.73
2019-03-02T16:40:59.412Z,6.03
2019-03-02T16:43:54.157Z,4.80
2019-03-02T16:46:42.432Z,5.50
2019-03-02T16:49:36.900Z,4.77
2019-03-02T16:52:29.887Z,6.10
2019-03-02T16:55:17.295Z,5.70
2019-03-02T16:58:09.770Z,4.50
2019-03-02T17:01:10.484Z,4.53
2019-03-02T17:03:59.184Z,5.60
2019-03-02T17:07:03.066Z,5.20
2019-03-02T17:09:50.211Z,3.77
2019-03-02T17:12:35.140Z,3.57
2019-03-02T17:15:33.439Z,5.40
2019-03-02T17:18:30.847Z,5.60
2019-03-02T17:21:21.691Z,5.67
2019-03-02T17:24:19.832Z,4.43
2019-03-02T17:27:04.023Z,5.87
2019-03-02T17:29:52.369Z,5.17
2019-03-02T17:32:43.681Z,5.40
2019-03-02T17:35:32.732Z,12.33
2019-03-02T17:38:21.985Z,8.57
2019-03-02T17:41:09.278Z,7.73
2019-03-02T17:44:06.920Z,10.73
2019-03-02T17:47:01.413Z,5.60
2019-03-02T17:49:48.459Z,6.07
2019-03-02T17:52:50.377Z,9.80
2019-03-02T17:55:45.677Z,21.53
2019-03-02T17:58:33.953Z,13.57
2019-03-02T18:01:20.918Z,11.87
2019-03-02T18:03:59.499Z,9.93
2019-03-02T18:06:39.244Z,6.40
2019-03-02T18:09:34.538Z,6.87
2019-03-02T18:12:12.316Z,5.30
2019-03-02T18:15:12.630Z,8.80
2019-03-02T18:17:59.455Z,5.70
2019-03-02T18:20:29.157Z,7.00
2019-03-02T18:22:58.626Z,5.10
2019-03-02T18:25:28.040Z,4.60
2019-03-02T18:27:59.283Z,4.70
2019-03-02T18:30:28.500Z,4.17
2019-03-02T18:33:01.180Z,5.43
2019-03-02T18:35:34.075Z,5.47
2019-03-02T18:38:04.593Z,4.40
2019-03-02T18:40:35.098Z,4.40
2019-03-02T18:43:08.280Z,4.10
2019-03-02T18:45:35.927Z,5.40
2019-03-02T18:48:11.399Z,4.10
2019-03-02T18:50:46.788Z,2.77
2019-03-02T18:53:16.264Z,3.83
2019-03-02T18:55:45.705Z,3.10
2019-03-02T18:58:15.235Z,3.30
2019-03-02T19:00:47.440Z,3.80
2019-03-02T19:03:16.808Z,3.80
2019-03-02T19:05:50.108Z,3.33
2019-03-02T19:08:17.358Z,3.87
2019-03-02T19:10:46.710Z,4.57
2019-03-02T19:13:16.163Z,3.70
2019-03-02T19:15:53.424Z,3.83
2019-03-02T19:18:17.245Z,3.60
2019-03-02T19:20:46.982Z,3.47
2019-03-02T19:23:16.681Z,3.67
2019-03-02T19:25:45.966Z,4.00
2019-03-02T19:28:15.246Z,3.10
2019-03-02T19:30:44.703Z,3.27
2019-03-02T19:33:14.067Z,3.57
2019-03-02T19:35:43.343Z,3.60
2019-03-02T19:38:12.725Z,3.57
2019-03-02T19:40:41.944Z,3.57
2019-03-02T19:43:11.257Z,3.63
2019-03-02T19:45:40.600Z,3.93
2019-03-02T19:48:09.856Z,3.67
2019-03-02T19:50:39.135Z,3.30
2019-03-02T19:53:08.419Z,3.80
2019-03-02T19:55:37.821Z,3.10
2019-03-02T19:58:07.243Z,3.80
2019-03-02T20:00:36.983Z,3.93
2019-03-02T20:03:06.641Z,3.33
2019-03-02T20:05:36.125Z,3.43
2019-03-02T20:08:05.555Z,3.10
2019-03-02T20:10:35.259Z,3.30
2019-03-02T20:13:04.564Z,3.57
2019-03-02T20:15:34.321Z,3.43
2019-03-02T20:18:03.650Z,3.60
2019-03-02T20:20:33.109Z,3.23
2019-03-02T20:23:02.389Z,3.00
2019-03-02T20:25:31.852Z,3.27
2019-03-02T20:28:01.202Z,3.13
2019-03-02T20:30:30.490Z,2.40
2019-03-02T20:32:59.771Z,2.93
2019-03-02T20:35:29.189Z,2.50
2019-03-02T20:37:58.814Z,2.47
2019-03-02T20:40:28.272Z,3.27
2019-03-02T20:42:57.596Z,3.03
2019-03-02T20:45:27.200Z,3.47
2019-03-02T20:47:56.665Z,2.80
2019-03-02T20:50:26.094Z,2.77
2019-03-02T20:52:55.318Z,3.27
2019-03-02T20:55:24.645Z,3.10
2019-03-02T20:57:54.008Z,2.73
2019-03-02T21:00:25.588Z,2.83
2019-03-02T21:02:55.126Z,2.40
2019-03-02T21:05:24.884Z,2.43
2019-03-02T21:07:54.522Z,2.37
2019-03-02T21:10:24.189Z,2.30
2019-03-02T21:12:53.723Z,2.00
2019-03-02T21:15:27.896Z,1.60
2019-03-02T21:17:57.225Z,1.80
2019-03-02T21:20:26.647Z,1.63
2019-03-02T21:22:55.919Z,1.60
2019-03-02T21:25:25.206Z,1.83
2019-03-02T21:27:54.825Z,1.40
2019-03-02T21:30:24.193Z,1.57
2019-03-02T21:32:53.601Z,1.27
2019-03-02T21:35:23.000Z,1.10
2019-03-02T21:37:52.571Z,1.30
2019-03-02T21:40:22.472Z,1.47
2019-03-02T21:42:52.073Z,1.70
2019-03-02T21:45:22.362Z,1.50
2019-03-02T21:47:52.381Z,1.40
2019-03-02T21:50:23.823Z,1.97
2019-03-02T21:52:53.244Z,1.30
2019-03-02T21:55:22.535Z,1.20
2019-03-02T21:57:51.849Z,1.67
2019-03-02T22:00:23.459Z,1.60
2019-03-02T22:02:52.818Z,1.40
2019-03-02T22:05:22.158Z,1.40
2019-03-02T22:07:51.628Z,1.70
2019-03-02T22:10:23.724Z,1.50
2019-03-02T22:12:53.065Z,1.30
2019-03-02T22:15:22.618Z,1.50
2019-03-02T22:17:52.796Z,1.73
2019-03-02T22:20:22.190Z,1.50
2019-03-02T22:22:51.499Z,1.57
2019-03-02T22:25:20.859Z,1.50
2019-03-02T22:27:50.142Z,1.63
2019-03-02T22:30:21.014Z,1.10
2019-03-02T22:32:50.254Z,1.33
2019-03-02T22:35:19.557Z,1.03
2019-03-02T22:37:48.838Z,1.33
2019-03-02T22:40:18.871Z,1.23
2019-03-02T22:42:48.209Z,0.90
2019-03-02T22:45:17.529Z,1.40
2019-03-02T22:47:46.873Z,1.40
2019-03-02T22:50:20.136Z,1.50
2019-03-02T22:52:49.469Z,1.43
2019-03-02T22:55:19.193Z,1.40
2019-03-02T22:57:48.763Z,1.60
2019-03-02T23:01:05.921Z,1.27
2019-03-02T23:03:33.631Z,1.20
2019-03-02T23:06:02.972Z,1.33
2019-03-02T23:08:32.274Z,1.10
2019-03-02T23:11:01.562Z,1.50
2019-03-02T23:13:30.790Z,1.33
2019-03-02T23:16:00.118Z,1.50
2019-03-02T23:18:29.368Z,1.40
2019-03-02T23:20:58.602Z,1.40
2019-03-02T23:23:27.909Z,1.50
2019-03-02T23:25:57.325Z,1.40
2019-03-02T23:28:26.680Z,1.37
2019-03-02T23:30:55.974Z,1.13
2019-03-02T23:33:25.208Z,1.37
2019-03-02T23:35:54.868Z,1.23
2019-03-02T23:38:24.199Z,1.67
2019-03-02T23:40:53.786Z,1.20
2019-03-02T23:43:23.205Z,1.20
2019-03-02T23:45:52.886Z,1.10
2019-03-02T23:48:22.379Z,1.10
2019-03-02T23:50:51.698Z,1.00
2019-03-02T23:53:21.000Z,1.20
2019-03-02T23:55:50.309Z,1.30
2019-03-02T23:58:19.543Z,1.53
